sensor_id;sensor_type;location;lat;lon;timestamp;pressure;altitude;pressure_sealevel;temperature;humidity
84677;BME280;74901;55.024;73.254;2024-01-16T00:00:09;102465.09;;;-22.95;71.69
84677;BME280;74901;55.024;73.254;2024-01-16T00:02:40;102465.88;;;-22.95;71.97
84677;BME280;74901;55.024;73.254;2024-01-16T00:05:09;102444.28;;;-23.07;71.42
84677;BME280;74901;55.024;73.254;2024-01-16T00:07:39;102474.16;;;-22.90;71.25
84677;BME280;74901;55.024;73.254;2024-01-16T00:10:08;102465.25;;;-22.87;71.99
84677;BME280;74901;55.024;73.254;2024-01-16T00:12:37;102470.09;;;-22.83;71.68
84677;BME280;74901;55.024;73.254;2024-01-16T00:15:07;102470.75;;;-22.90;71.64
84677;BME280;74901;55.024;73.254;2024-01-16T00:17:36;102473.97;;;-22.98;71.48
84677;BME280;74901;55.024;73.254;2024-01-16T00:20:08;102463.09;;;-23.03;71.93
84677;BME280;74901;55.024;73.254;2024-01-16T00:22:37;102464.88;;;-23.03;71.51
84677;BME280;74901;55.024;73.254;2024-01-16T00:25:07;102472.81;;;-23.05;72.01
84677;BME280;74901;55.024;73.254;2024-01-16T00:27:36;102469.66;;;-23.09;71.87
84677;BME280;74901;55.024;73.254;2024-01-16T00:30:05;102478.00;;;-23.05;72.11
84677;BME280;74901;55.024;73.254;2024-01-16T00:32:35;102486.38;;;-23.01;72.21
84677;BME280;74901;55.024;73.254;2024-01-16T00:35:06;102488.03;;;-23.00;71.99
84677;BME280;74901;55.024;73.254;2024-01-16T00:37:36;102499.28;;;-23.00;72.22
84677;BME280;74901;55.024;73.254;2024-01-16T00:40:06;102498.22;;;-22.97;71.60
84677;BME280;74901;55.024;73.254;2024-01-16T00:42:40;102476.19;;;-23.14;72.10
84677;BME280;74901;55.024;73.254;2024-01-16T00:45:09;102494.78;;;-22.98;71.86
84677;BME280;74901;55.024;73.254;2024-01-16T00:47:38;102487.88;;;-23.09;71.42
84677;BME280;74901;55.024;73.254;2024-01-16T00:50:10;102494.13;;;-23.11;71.65
84677;BME280;74901;55.024;73.254;2024-01-16T00:52:38;102500.72;;;-23.07;71.48
84677;BME280;74901;55.024;73.254;2024-01-16T00:55:08;102503.72;;;-23.12;72.01
84677;BME280;74901;55.024;73.254;2024-01-16T00:57:36;102521.81;;;-23.10;71.66
84677;BME280;74901;55.024;73.254;2024-01-16T01:00:06;102508.09;;;-23.12;72.05
84677;BME280;74901;55.024;73.254;2024-01-16T01:02:37;102523.81;;;-23.14;71.92
84677;BME280;74901;55.024;73.254;2024-01-16T01:05:07;102516.72;;;-23.12;71.58
84677;BME280;74901;55.024;73.254;2024-01-16T01:07:39;102524.53;;;-23.12;72.17
84677;BME280;74901;55.024;73.254;2024-01-16T01:10:08;102520.03;;;-23.10;71.63
84677;BME280;74901;55.024;73.254;2024-01-16T01:12:37;102531.28;;;-23.09;71.58
84677;BME280;74901;55.024;73.254;2024-01-16T01:15:09;102521.69;;;-23.09;71.56
84677;BME280;74901;55.024;73.254;2024-01-16T01:17:38;102525.69;;;-23.04;72.15
84677;BME280;74901;55.024;73.254;2024-01-16T01:20:08;102522.16;;;-23.03;71.29
84677;BME280;74901;55.024;73.254;2024-01-16T01:22:40;102521.19;;;-23.02;71.59
84677;BME280;74901;55.024;73.254;2024-01-16T01:25:09;102525.31;;;-23.00;71.25
84677;BME280;74901;55.024;73.254;2024-01-16T01:27:39;102528.50;;;-22.96;71.96
84677;BME280;74901;55.024;73.254;2024-01-16T01:30:09;102520.94;;;-22.99;71.67
84677;BME280;74901;55.024;73.254;2024-01-16T01:32:38;102522.47;;;-22.97;71.48
84677;BME280;74901;55.024;73.254;2024-01-16T01:35:07;102526.03;;;-22.98;71.90
84677;BME280;74901;55.024;73.254;2024-01-16T01:37:39;102520.00;;;-22.98;71.62
84677;BME280;74901;55.024;73.254;2024-01-16T01:40:08;102518.22;;;-22.98;72.12
84677;BME280;74901;55.024;73.254;2024-01-16T01:42:42;102525.91;;;-22.96;71.57
84677;BME280;74901;55.024;73.254;2024-01-16T01:45:11;102529.47;;;-22.97;71.82
84677;BME280;74901;55.024;73.254;2024-01-16T01:47:41;102533.94;;;-22.99;71.57
84677;BME280;74901;55.024;73.254;2024-01-16T01:50:10;102541.53;;;-22.96;71.37
84677;BME280;74901;55.024;73.254;2024-01-16T01:52:41;102542.47;;;-22.97;71.90
84677;BME280;74901;55.024;73.254;2024-01-16T01:55:12;102520.59;;;-23.06;72.01
84677;BME280;74901;55.024;73.254;2024-01-16T01:57:42;102541.97;;;-22.91;71.26
84677;BME280;74901;55.024;73.254;2024-01-16T02:00:12;102547.06;;;-22.90;71.44
84677;BME280;74901;55.024;73.254;2024-01-16T02:02:41;102542.09;;;-22.93;71.43
84677;BME280;74901;55.024;73.254;2024-01-16T02:05:11;102550.13;;;-22.85;72.03
84677;BME280;74901;55.024;73.254;2024-01-16T02:07:42;102547.91;;;-22.89;71.89
84677;BME280;74901;55.024;73.254;2024-01-16T02:10:11;102552.34;;;-22.80;71.85
84677;BME280;74901;55.024;73.254;2024-01-16T02:12:40;102521.75;;;-22.99;71.57
84677;BME280;74901;55.024;73.254;2024-01-16T02:15:09;102519.88;;;-22.97;71.28
84677;BME280;74901;55.024;73.254;2024-01-16T02:17:39;102558.13;;;-22.77;71.13
84677;BME280;74901;55.024;73.254;2024-01-16T02:20:08;102563.59;;;-22.80;71.97
84677;BME280;74901;55.024;73.254;2024-01-16T02:22:38;102566.19;;;-22.80;71.39
84677;BME280;74901;55.024;73.254;2024-01-16T02:25:10;102562.03;;;-22.82;71.28
84677;BME280;74901;55.024;73.254;2024-01-16T02:27:39;102562.31;;;-22.85;71.95
84677;BME280;74901;55.024;73.254;2024-01-16T02:30:08;102560.78;;;-22.88;71.56
84677;BME280;74901;55.024;73.254;2024-01-16T02:32:38;102572.84;;;-22.87;71.93
84677;BME280;74901;55.024;73.254;2024-01-16T02:35:08;102580.78;;;-22.88;71.95
84677;BME280;74901;55.024;73.254;2024-01-16T02:37:37;102583.25;;;-22.87;71.96
84677;BME280;74901;55.024;73.254;2024-01-16T02:40:07;102570.63;;;-22.91;71.54
84677;BME280;74901;55.024;73.254;2024-01-16T02:42:37;102577.72;;;-22.93;72.23
84677;BME280;74901;55.024;73.254;2024-01-16T02:45:07;102563.53;;;-23.00;72.00
84677;BME280;74901;55.024;73.254;2024-01-16T02:47:36;102578.44;;;-22.91;71.55
84677;BME280;74901;55.024;73.254;2024-01-16T02:50:05;102553.75;;;-23.08;71.67
84677;BME280;74901;55.024;73.254;2024-01-16T02:52:36;102578.44;;;-22.91;71.33
84677;BME280;74901;55.024;73.254;2024-01-16T02:55:07;102560.44;;;-22.94;72.00
84677;BME280;74901;55.024;73.254;2024-01-16T02:57:37;102574.63;;;-22.87;71.87
84677;BME280;74901;55.024;73.254;2024-01-16T03:00:07;102581.03;;;-22.91;71.82
84677;BME280;74901;55.024;73.254;2024-01-16T03:02:36;102583.38;;;-22.88;71.89
84677;BME280;74901;55.024;73.254;2024-01-16T03:05:06;102585.28;;;-22.90;71.89
84677;BME280;74901;55.024;73.254;2024-01-16T03:07:36;102591.44;;;-22.91;71.48
84677;BME280;74901;55.024;73.254;2024-01-16T03:10:06;102584.34;;;-23.00;71.77
84677;BME280;74901;55.024;73.254;2024-01-16T03:12:37;102588.38;;;-22.96;72.05
84677;BME280;74901;55.024;73.254;2024-01-16T03:15:06;102598.53;;;-22.93;72.18
84677;BME280;74901;55.024;73.254;2024-01-16T03:17:36;102607.63;;;-22.88;71.99
84677;BME280;74901;55.024;73.254;2024-01-16T03:20:06;102574.88;;;-23.01;71.95
84677;BME280;74901;55.024;73.254;2024-01-16T03:22:35;102606.81;;;-22.88;71.31
84677;BME280;74901;55.024;73.254;2024-01-16T03:25:03;102606.81;;;-22.88;71.62
84677;BME280;74901;55.024;73.254;2024-01-16T03:27:32;102614.63;;;-22.88;71.51
84677;BME280;74901;55.024;73.254;2024-01-16T03:30:03;102613.22;;;-22.92;71.58
84677;BME280;74901;55.024;73.254;2024-01-16T03:32:33;102616.41;;;-22.89;72.09
84677;BME280;74901;55.024;73.254;2024-01-16T03:35:01;102614.38;;;-22.85;71.81
84677;BME280;74901;55.024;73.254;2024-01-16T03:37:30;102613.56;;;-22.86;71.67
84677;BME280;74901;55.024;73.254;2024-01-16T03:39:59;102599.97;;;-22.89;71.96
84677;BME280;74901;55.024;73.254;2024-01-16T03:42:28;102617.56;;;-22.82;71.69
84677;BME280;74901;55.024;73.254;2024-01-16T03:45:03;102621.59;;;-22.78;71.48
84677;BME280;74901;55.024;73.254;2024-01-16T03:47:34;102621.44;;;-22.76;71.65
84677;BME280;74901;55.024;73.254;2024-01-16T03:50:03;102621.31;;;-22.75;71.94
84677;BME280;74901;55.024;73.254;2024-01-16T03:52:32;102602.19;;;-22.85;71.54
84677;BME280;74901;55.024;73.254;2024-01-16T03:55:01;102606.66;;;-22.76;71.68
84677;BME280;74901;55.024;73.254;2024-01-16T03:57:30;102617.25;;;-22.68;71.24
84677;BME280;74901;55.024;73.254;2024-01-16T03:59:59;102626.81;;;-22.78;71.73
84677;BME280;74901;55.024;73.254;2024-01-16T04:02:32;102624.09;;;-22.87;71.35
84677;BME280;74901;55.024;73.254;2024-01-16T04:05:01;102620.91;;;-22.91;71.51
84677;BME280;74901;55.024;73.254;2024-01-16T04:07:30;102623.00;;;-22.74;71.51
84677;BME280;74901;55.024;73.254;2024-01-16T04:09:59;102621.59;;;-22.57;71.64
84677;BME280;74901;55.024;73.254;2024-01-16T04:12:28;102612.22;;;-22.48;70.90
84677;BME280;74901;55.024;73.254;2024-01-16T04:14:58;102621.19;;;-22.41;71.56
84677;BME280;74901;55.024;73.254;2024-01-16T04:17:27;102626.13;;;-22.38;71.01
84677;BME280;74901;55.024;73.254;2024-01-16T04:19:58;102604.94;;;-22.34;70.90
84677;BME280;74901;55.024;73.254;2024-01-16T04:22:28;102626.16;;;-22.17;70.81
84677;BME280;74901;55.024;73.254;2024-01-16T04:24:57;102626.59;;;-22.12;71.32
84677;BME280;74901;55.024;73.254;2024-01-16T04:27:26;102614.38;;;-22.12;71.04
84677;BME280;74901;55.024;73.254;2024-01-16T04:29:55;102625.38;;;-22.08;70.99
84677;BME280;74901;55.024;73.254;2024-01-16T04:32:23;102631.06;;;-22.03;71.25
84677;BME280;74901;55.024;73.254;2024-01-16T04:34:52;102619.91;;;-22.05;71.04
84677;BME280;74901;55.024;73.254;2024-01-16T04:37:22;102630.44;;;-21.86;71.19
84677;BME280;74901;55.024;73.254;2024-01-16T04:39:52;102636.91;;;-21.81;71.27
84677;BME280;74901;55.024;73.254;2024-01-16T04:42:21;102644.09;;;-21.73;70.51
84677;BME280;74901;55.024;73.254;2024-01-16T04:44:49;102655.94;;;-21.69;71.07
84677;BME280;74901;55.024;73.254;2024-01-16T04:47:19;102662.28;;;-21.62;70.46
84677;BME280;74901;55.024;73.254;2024-01-16T04:49:48;102652.41;;;-21.58;70.58
84677;BME280;74901;55.024;73.254;2024-01-16T04:52:17;102659.81;;;-21.63;70.74
84677;BME280;74901;55.024;73.254;2024-01-16T04:54:49;102655.16;;;-21.60;70.72
84677;BME280;74901;55.024;73.254;2024-01-16T04:57:18;102659.91;;;-21.65;71.04
84677;BME280;74901;55.024;73.254;2024-01-16T04:59:47;102663.94;;;-21.61;71.30
84677;BME280;74901;55.024;73.254;2024-01-16T05:02:15;102668.47;;;-21.63;70.61
84677;BME280;74901;55.024;73.254;2024-01-16T05:04:46;102653.44;;;-21.70;71.28
84677;BME280;74901;55.024;73.254;2024-01-16T05:07:16;102664.97;;;-21.73;71.25
84677;BME280;74901;55.024;73.254;2024-01-16T05:09:48;102663.19;;;-21.72;71.31
84677;BME280;74901;55.024;73.254;2024-01-16T05:12:18;102659.25;;;-21.67;70.85
84677;BME280;74901;55.024;73.254;2024-01-16T05:14:47;102668.88;;;-21.58;71.33
84677;BME280;74901;55.024;73.254;2024-01-16T05:17:16;102658.63;;;-21.50;71.18
84677;BME280;74901;55.024;73.254;2024-01-16T05:19:45;102655.22;;;-21.41;70.54
84677;BME280;74901;55.024;73.254;2024-01-16T05:22:14;102663.66;;;-21.37;70.92
84677;BME280;74901;55.024;73.254;2024-01-16T05:24:42;102655.22;;;-21.41;70.50
84677;BME280;74901;55.024;73.254;2024-01-16T05:27:13;102656.78;;;-21.28;70.53
84677;BME280;74901;55.024;73.254;2024-01-16T05:29:42;102658.44;;;-21.27;70.44
84677;BME280;74901;55.024;73.254;2024-01-16T05:32:11;102675.25;;;-21.11;70.95
84677;BME280;74901;55.024;73.254;2024-01-16T05:34:42;102671.59;;;-20.99;70.16
84677;BME280;74901;55.024;73.254;2024-01-16T05:37:11;102673.69;;;-20.83;70.50
84677;BME280;74901;55.024;73.254;2024-01-16T05:39:40;102673.44;;;-20.70;70.21
84677;BME280;74901;55.024;73.254;2024-01-16T05:42:09;102681.03;;;-20.67;69.84
84677;BME280;74901;55.024;73.254;2024-01-16T05:44:39;102686.78;;;-20.64;69.83
84677;BME280;74901;55.024;73.254;2024-01-16T05:47:09;102689.00;;;-20.69;69.95
84677;BME280;74901;55.024;73.254;2024-01-16T05:49:38;102689.81;;;-20.68;70.48
84677;BME280;74901;55.024;73.254;2024-01-16T05:52:08;102682.94;;;-20.60;70.41
84677;BME280;74901;55.024;73.254;2024-01-16T05:54:37;102687.63;;;-20.53;70.35
84677;BME280;74901;55.024;73.254;2024-01-16T05:57:06;102684.88;;;-20.62;70.09
84677;BME280;74901;55.024;73.254;2024-01-16T05:59:35;102692.38;;;-20.78;70.08
84677;BME280;74901;55.024;73.254;2024-01-16T06:02:07;102687.69;;;-20.93;70.18
84677;BME280;74901;55.024;73.254;2024-01-16T06:04:37;102685.75;;;-20.91;70.07
84677;BME280;74901;55.024;73.254;2024-01-16T06:07:06;102693.94;;;-20.75;70.38
84677;BME280;74901;55.024;73.254;2024-01-16T06:09:39;102692.47;;;-20.49;70.00
84677;BME280;74901;55.024;73.254;2024-01-16T06:12:08;102656.25;;;-20.53;69.90
84677;BME280;74901;55.024;73.254;2024-01-16T06:14:39;102686.25;;;-20.29;69.25
84677;BME280;74901;55.024;73.254;2024-01-16T06:17:09;102689.97;;;-20.31;69.56
84677;BME280;74901;55.024;73.254;2024-01-16T06:19:38;102696.31;;;-20.43;69.62
84677;BME280;74901;55.024;73.254;2024-01-16T06:22:07;102700.19;;;-20.38;69.17
84677;BME280;74901;55.024;73.254;2024-01-16T06:24:36;102701.97;;;-20.38;69.72
84677;BME280;74901;55.024;73.254;2024-01-16T06:27:05;102702.09;;;-20.21;69.78
84677;BME280;74901;55.024;73.254;2024-01-16T06:29:34;102703.03;;;-20.02;69.04
84677;BME280;74901;55.024;73.254;2024-01-16T06:32:03;102701.25;;;-20.02;68.65
84677;BME280;74901;55.024;73.254;2024-01-16T06:34:34;102687.88;;;-19.99;69.23
84677;BME280;74901;55.024;73.254;2024-01-16T06:37:03;102692.84;;;-19.77;68.76
84677;BME280;74901;55.024;73.254;2024-01-16T06:39:32;102702.97;;;-19.54;68.68
84677;BME280;74901;55.024;73.254;2024-01-16T06:42:01;102695.03;;;-19.25;68.37
84677;BME280;74901;55.024;73.254;2024-01-16T06:44:30;102693.06;;;-19.14;68.70
84677;BME280;74901;55.024;73.254;2024-01-16T06:46:59;102699.47;;;-18.99;68.34
84677;BME280;74901;55.024;73.254;2024-01-16T06:49:28;102701.50;;;-18.93;68.35
84677;BME280;74901;55.024;73.254;2024-01-16T06:51:58;102699.38;;;-18.79;68.29
84677;BME280;74901;55.024;73.254;2024-01-16T06:54:27;102698.75;;;-18.64;68.55
84677;BME280;74901;55.024;73.254;2024-01-16T06:56:56;102693.34;;;-18.62;68.61
84677;BME280;74901;55.024;73.254;2024-01-16T06:59:24;102696.53;;;-18.68;68.32
84677;BME280;74901;55.024;73.254;2024-01-16T07:01:53;102706.31;;;-18.61;68.47
84677;BME280;74901;55.024;73.254;2024-01-16T07:04:23;102709.88;;;-18.44;68.35
84677;BME280;74901;55.024;73.254;2024-01-16T07:06:51;102700.53;;;-18.29;68.50
84677;BME280;74901;55.024;73.254;2024-01-16T07:09:22;102706.63;;;-18.11;68.33
84677;BME280;74901;55.024;73.254;2024-01-16T07:11:51;102709.56;;;-17.96;68.15
84677;BME280;74901;55.024;73.254;2024-01-16T07:14:19;102701.13;;;-17.99;68.10
84677;BME280;74901;55.024;73.254;2024-01-16T07:16:48;102699.69;;;-17.76;68.22
84677;BME280;74901;55.024;73.254;2024-01-16T07:19:17;102720.00;;;-17.60;68.34
84677;BME280;74901;55.024;73.254;2024-01-16T07:21:46;102719.38;;;-17.54;68.05
84677;BME280;74901;55.024;73.254;2024-01-16T07:24:50;102710.13;;;-17.67;67.71
84677;BME280;74901;55.024;73.254;2024-01-16T07:27:19;102711.72;;;-17.91;68.34
84677;BME280;74901;55.024;73.254;2024-01-16T07:29:48;102715.91;;;-17.98;68.91
84677;BME280;74901;55.024;73.254;2024-01-16T07:32:17;102716.81;;;-17.90;68.39
84677;BME280;74901;55.024;73.254;2024-01-16T07:34:46;102712.59;;;-17.83;68.62
84677;BME280;74901;55.024;73.254;2024-01-16T07:37:15;102717.44;;;-17.96;68.77
84677;BME280;74901;55.024;73.254;2024-01-16T07:39:44;102725.50;;;-18.07;68.79
84677;BME280;74901;55.024;73.254;2024-01-16T07:42:15;102724.16;;;-18.11;68.82
84677;BME280;74901;55.024;73.254;2024-01-16T07:44:44;102733.38;;;-18.07;69.09
84677;BME280;74901;55.024;73.254;2024-01-16T07:47:13;102718.91;;;-17.93;68.64
84677;BME280;74901;55.024;73.254;2024-01-16T07:49:42;102721.47;;;-17.84;68.23
84677;BME280;74901;55.024;73.254;2024-01-16T07:52:11;102713.03;;;-17.70;68.39
84677;BME280;74901;55.024;73.254;2024-01-16T07:54:40;102702.59;;;-17.61;67.84
84677;BME280;74901;55.024;73.254;2024-01-16T07:57:09;102692.97;;;-17.79;68.09
84677;BME280;74901;55.024;73.254;2024-01-16T07:59:40;102706.38;;;-17.82;67.91
84677;BME280;74901;55.024;73.254;2024-01-16T08:02:09;102705.72;;;-17.84;67.53
84677;BME280;74901;55.024;73.254;2024-01-16T08:04:38;102695.06;;;-18.00;67.66
84677;BME280;74901;55.024;73.254;2024-01-16T08:07:07;102700.53;;;-18.11;67.34
84677;BME280;74901;55.024;73.254;2024-01-16T08:09:36;102699.06;;;-17.96;67.65
84677;BME280;74901;55.024;73.254;2024-01-16T08:12:06;102708.56;;;-17.77;67.12
84677;BME280;74901;55.024;73.254;2024-01-16T08:14:35;102708.81;;;-17.62;67.20
84677;BME280;74901;55.024;73.254;2024-01-16T08:17:06;102694.78;;;-17.45;66.77
84677;BME280;74901;55.024;73.254;2024-01-16T08:19:35;102705.91;;;-17.26;66.66
84677;BME280;74901;55.024;73.254;2024-01-16T08:22:05;102701.75;;;-17.10;66.27
84677;BME280;74901;55.024;73.254;2024-01-16T08:24:34;102711.31;;;-17.01;66.40
84677;BME280;74901;55.024;73.254;2024-01-16T08:27:03;102715.28;;;-16.97;65.85
84677;BME280;74901;55.024;73.254;2024-01-16T08:29:32;102713.97;;;-16.93;66.06
84677;BME280;74901;55.024;73.254;2024-01-16T08:32:01;102705.47;;;-16.87;66.48
84677;BME280;74901;55.024;73.254;2024-01-16T08:34:32;102721.38;;;-16.89;66.23
84677;BME280;74901;55.024;73.254;2024-01-16T08:37:01;102715.78;;;-16.94;65.72
84677;BME280;74901;55.024;73.254;2024-01-16T08:39:31;102726.78;;;-16.98;66.61
84677;BME280;74901;55.024;73.254;2024-01-16T08:42:01;102720.50;;;-17.05;66.26
84677;BME280;74901;55.024;73.254;2024-01-16T08:44:30;102718.00;;;-17.07;66.31
84677;BME280;74901;55.024;73.254;2024-01-16T08:46:59;102718.63;;;-17.13;66.38
84677;BME280;74901;55.024;73.254;2024-01-16T08:49:33;102727.50;;;-17.14;66.52
84677;BME280;74901;55.024;73.254;2024-01-16T08:52:03;102664.56;;;-17.49;66.22
84677;BME280;74901;55.024;73.254;2024-01-16T08:54:32;102726.53;;;-17.13;66.01
84677;BME280;74901;55.024;73.254;2024-01-16T08:57:01;102720.59;;;-17.15;66.24
84677;BME280;74901;55.024;73.254;2024-01-16T08:59:30;102733.22;;;-17.18;66.28
84677;BME280;74901;55.024;73.254;2024-01-16T09:01:59;102734.06;;;-17.18;66.52
84677;BME280;74901;55.024;73.254;2024-01-16T09:04:28;102727.28;;;-17.20;66.56
84677;BME280;74901;55.024;73.254;2024-01-16T09:06:58;102729.91;;;-17.29;66.48
84677;BME280;74901;55.024;73.254;2024-01-16T09:09:27;102740.03;;;-17.34;66.04
84677;BME280;74901;55.024;73.254;2024-01-16T09:11:56;102735.03;;;-17.45;66.77
84677;BME280;74901;55.024;73.254;2024-01-16T09:14:25;102745.84;;;-17.48;67.03
84677;BME280;74901;55.024;73.254;2024-01-16T09:16:54;102750.97;;;-17.46;66.98
84677;BME280;74901;55.024;73.254;2024-01-16T09:19:23;102758.88;;;-17.38;67.30
84677;BME280;74901;55.024;73.254;2024-01-16T09:21:52;102756.31;;;-17.30;66.61
84677;BME280;74901;55.024;73.254;2024-01-16T09:24:23;102770.84;;;-17.18;66.58
84677;BME280;74901;55.024;73.254;2024-01-16T09:26:52;102762.97;;;-17.18;66.69
84677;BME280;74901;55.024;73.254;2024-01-16T09:29:21;102764.41;;;-17.23;66.18
84677;BME280;74901;55.024;73.254;2024-01-16T09:31:52;102772.44;;;-17.25;66.58
84677;BME280;74901;55.024;73.254;2024-01-16T09:34:23;102771.13;;;-17.29;66.41
84677;BME280;74901;55.024;73.254;2024-01-16T09:36:52;102756.19;;;-17.29;66.33
84677;BME280;74901;55.024;73.254;2024-01-16T09:39:20;102740.13;;;-17.43;66.63
84677;BME280;74901;55.024;73.254;2024-01-16T09:41:51;102759.09;;;-17.32;66.63
84677;BME280;74901;55.024;73.254;2024-01-16T09:44:20;102769.25;;;-17.37;66.29
84677;BME280;74901;55.024;73.254;2024-01-16T09:46:50;102771.81;;;-17.45;66.64
84677;BME280;74901;55.024;73.254;2024-01-16T09:49:21;102767.47;;;-17.54;66.87
84677;BME280;74901;55.024;73.254;2024-01-16T09:51:51;102765.00;;;-17.55;66.59
84677;BME280;74901;55.024;73.254;2024-01-16T09:54:20;102756.50;;;-17.75;66.55
84677;BME280;74901;55.024;73.254;2024-01-16T09:56:52;102773.97;;;-17.66;66.61
84677;BME280;74901;55.024;73.254;2024-01-16T09:59:22;102778.19;;;-17.73;66.26
84677;BME280;74901;55.024;73.254;2024-01-16T10:01:52;102770.22;;;-17.81;66.81
84677;BME280;74901;55.024;73.254;2024-01-16T10:04:23;102764.22;;;-17.91;66.65
84677;BME280;74901;55.024;73.254;2024-01-16T10:06:52;102768.94;;;-17.95;66.58
84677;BME280;74901;55.024;73.254;2024-01-16T10:09:24;102766.63;;;-17.98;66.70
84677;BME280;74901;55.024;73.254;2024-01-16T10:11:55;102769.53;;;-18.01;67.11
84677;BME280;74901;55.024;73.254;2024-01-16T10:14:24;102752.13;;;-18.20;67.06
84677;BME280;74901;55.024;73.254;2024-01-16T10:16:58;102781.41;;;-18.15;66.79
84677;BME280;74901;55.024;73.254;2024-01-16T10:19:32;102767.94;;;-18.29;67.06
84677;BME280;74901;55.024;73.254;2024-01-16T10:22:02;102784.78;;;-18.32;66.88
84677;BME280;74901;55.024;73.254;2024-01-16T10:24:31;102782.59;;;-18.36;66.80
84677;BME280;74901;55.024;73.254;2024-01-16T10:27:04;102778.91;;;-18.43;67.00
84677;BME280;74901;55.024;73.254;2024-01-16T10:29:33;102784.16;;;-18.43;66.75
84677;BME280;74901;55.024;73.254;2024-01-16T10:32:03;102776.75;;;-18.48;66.51
84677;BME280;74901;55.024;73.254;2024-01-16T10:34:37;102779.75;;;-18.43;66.61
84677;BME280;74901;55.024;73.254;2024-01-16T10:37:06;102791.75;;;-18.40;66.67
84677;BME280;74901;55.024;73.254;2024-01-16T10:39:35;102789.28;;;-18.42;66.81
84677;BME280;74901;55.024;73.254;2024-01-16T10:42:09;102796.63;;;-18.00;65.76
84677;BME280;74901;55.024;73.254;2024-01-16T10:44:53;102777.81;;;-17.78;65.23
84677;BME280;74901;55.024;73.254;2024-01-16T10:47:22;102799.09;;;-17.81;65.39
84677;BME280;74901;55.024;73.254;2024-01-16T10:49:51;102796.38;;;-18.07;65.94
84677;BME280;74901;55.024;73.254;2024-01-16T10:52:23;102791.81;;;-18.32;66.21
84677;BME280;74901;55.024;73.254;2024-01-16T10:58:22;102793.06;;;-18.81;67.25
84677;BME280;74901;55.024;73.254;2024-01-16T11:00:53;102804.03;;;-18.96;67.19
84677;BME280;74901;55.024;73.254;2024-01-16T11:03:27;102802.66;;;-19.09;67.66
84677;BME280;74901;55.024;73.254;2024-01-16T11:05:58;102800.34;;;-19.22;68.11
84677;BME280;74901;55.024;73.254;2024-01-16T11:08:30;102803.00;;;-19.32;67.79
84677;BME280;74901;55.024;73.254;2024-01-16T11:11:00;102802.06;;;-19.50;68.23
84677;BME280;74901;55.024;73.254;2024-01-16T11:13:33;102811.00;;;-19.62;68.04
84677;BME280;74901;55.024;73.254;2024-01-16T11:16:03;102804.44;;;-19.76;67.93
84677;BME280;74901;55.024;73.254;2024-01-16T11:18:34;102802.19;;;-19.90;68.09
84677;BME280;74901;55.024;73.254;2024-01-16T11:21:05;102729.47;;;-20.44;68.57
84677;BME280;74901;55.024;73.254;2024-01-16T11:23:36;102816.38;;;-20.02;68.36
84677;BME280;74901;55.024;73.254;2024-01-16T11:26:27;102784.53;;;-20.26;68.27
84677;BME280;74901;55.024;73.254;2024-01-16T11:29:33;102810.84;;;-20.08;67.80
84677;BME280;74901;55.024;73.254;2024-01-16T11:31:51;102812.22;;;-20.14;68.57
84677;BME280;74901;55.024;73.254;2024-01-16T11:34:52;102804.91;;;-20.20;68.28
84677;BME280;74901;55.024;73.254;2024-01-16T11:37:28;102797.84;;;-20.29;68.25
84677;BME280;74901;55.024;73.254;2024-01-16T11:40:24;102806.84;;;-20.32;68.26
84677;BME280;74901;55.024;73.254;2024-01-16T11:42:54;102813.44;;;-20.37;68.09
84677;BME280;74901;55.024;73.254;2024-01-16T11:45:55;102794.53;;;-20.50;67.71
84677;BME280;74901;55.024;73.254;2024-01-16T11:48:25;102799.06;;;-20.52;68.11
84677;BME280;74901;55.024;73.254;2024-01-16T11:50:54;102805.13;;;-20.52;67.65
84677;BME280;74901;55.024;73.254;2024-01-16T11:53:34;102809.09;;;-20.58;67.72
84677;BME280;74901;55.024;73.254;2024-01-16T12:02:18;102807.97;;;-20.65;67.94
84677;BME280;74901;55.024;73.254;2024-01-16T12:04:58;102810.03;;;-20.68;68.04
84677;BME280;74901;55.024;73.254;2024-01-16T12:07:43;102813.59;;;-20.69;68.06
84677;BME280;74901;55.024;73.254;2024-01-16T12:10:12;102814.84;;;-20.73;67.69
84677;BME280;74901;55.024;73.254;2024-01-16T12:12:41;102815.63;;;-20.73;67.67
84677;BME280;74901;55.024;73.254;2024-01-16T12:15:14;102823.75;;;-20.76;68.10
84677;BME280;74901;55.024;73.254;2024-01-16T12:17:59;102816.31;;;-20.80;67.83
84677;BME280;74901;55.024;73.254;2024-01-16T12:20:31;102815.72;;;-20.84;67.63
84677;BME280;74901;55.024;73.254;2024-01-16T12:23:01;102815.03;;;-20.86;67.88
84677;BME280;74901;55.024;73.254;2024-01-16T12:25:31;102812.56;;;-20.87;67.88
84677;BME280;74901;55.024;73.254;2024-01-16T12:28:00;102809.94;;;-20.87;68.26
84677;BME280;74901;55.024;73.254;2024-01-16T12:30:31;102807.72;;;-20.92;67.59
84677;BME280;74901;55.024;73.254;2024-01-16T12:33:07;102817.91;;;-20.89;67.43
84677;BME280;74901;55.024;73.254;2024-01-16T12:35:37;102811.28;;;-20.93;67.52
84677;BME280;74901;55.024;73.254;2024-01-16T12:38:08;102809.19;;;-20.99;67.45
84677;BME280;74901;55.024;73.254;2024-01-16T12:40:39;102819.50;;;-20.98;68.17
84677;BME280;74901;55.024;73.254;2024-01-16T12:43:09;102823.09;;;-20.99;67.45
84677;BME280;74901;55.024;73.254;2024-01-16T12:45:38;102813.59;;;-21.00;68.05
84677;BME280;74901;55.024;73.254;2024-01-16T12:48:09;102818.00;;;-21.00;67.96
84677;BME280;74901;55.024;73.254;2024-01-16T12:50:38;102814.78;;;-21.04;68.11
84677;BME280;74901;55.024;73.254;2024-01-16T12:53:09;102817.78;;;-21.08;67.67
84677;BME280;74901;55.024;73.254;2024-01-16T12:55:40;102821.34;;;-21.09;67.58